SBSV/SSA METAR and TAF weather

Enter ICAO airport designator
Station Type Date Time Source
SBSV METAR 2022/01/19 20:00 UTC NOAA

SBSV 192000Z 14009KT 9999 FEW023 SCT070 30/24 Q1015


Station Type Date Time Source
SBSV Decoded METAR 2022/01/19 20:00 UTC NOAA

Salvador Aeroporto , Brazil (SBSV) 12-54S 038-20W 13M
Jan 19, 2022 - 03:00 PM EST / 2022.01.19 2000 UTC
Wind: from the SE (140 degrees) at 10 MPH (9 KT):0
Visibility: greater than 7 mile(s):0
Sky conditions: partly cloudy
Temperature: 86 F (30 C)
Heat index: 95.0 F (35.0 C):1
Dew Point: 75 F (24 C)
Relative Humidity: 70%
Pressure (altimeter): 29.97 in. Hg (1015 hPa)
ob: SBSV 192000Z 14009KT 9999 FEW023 SCT070 30/24 Q1015
cycle: 20

Station Type Date Time Source
SBSV TAF 2022/01/19 18:51 UTC NOAA

TAF SBSV 191630Z 1918/2018 17010KT 9999 SCT023 TX31/1918Z TN26/2007Z PROB30 1918/1921 8000 TSRA SCT020 FEW025CB
BECMG 1921/1923 8000 RA SCT020 FEW023TCU
BECMG 2001/2003 28005KT
BECMG 2003/2005 9999 NSW FEW020
BECMG 2006/2008 10007KT PROB30 2008/2012 8000 SHRA SCT020 FEW023TCU
RMK PGG

Example: see airport list